Time;durP1;ratioP1;P1;durP2;ratioP2;P2;SDS_P1;SDS_P2;PMS_P1;PMS_P2;Temp;Humidity;BMP_temperature;BMP_pressure;BME280_temperature;BME280_humidity;BME280_pressure;Samples;Min_cycle;Max_cycle;Signal;HPM_P1;HPM_P2
2022/04/07 00:00:33;;;;;;;4.22;3.40;;;9.90;99.90;;;;;;5008212;28;20575;-74
2022/04/07 00:02:58;;;;;;;4.43;3.38;;;9.90;99.90;;;;;;5011518;28;20092;-74
2022/04/07 00:05:24;;;;;;;3.45;3.15;;;9.90;99.90;;;;;;5018769;28;20067;-74
2022/04/07 00:07:50;;;;;;;3.65;2.67;;;9.90;99.90;;;;;;5025608;28;20076;-73
2022/04/07 00:10:15;;;;;;;3.38;2.95;;;10.00;99.90;;;;;;5027602;28;20088;-73
2022/04/07 00:12:42;;;;;;;3.88;2.53;;;10.00;99.90;;;;;;5034037;28;20044;-74
2022/04/07 00:15:11;;;;;;;4.10;2.88;;;10.00;99.90;;;;;;5013070;28;20984;-74
2022/04/07 00:17:37;;;;;;;4.18;2.72;;;10.00;99.90;;;;;;5008379;28;20098;-73
2022/04/07 00:20:04;;;;;;;8.10;3.38;;;9.90;99.90;;;;;;5022015;28;20041;-74
2022/04/07 00:22:30;;;;;;;7.35;3.47;;;9.90;99.90;;;;;;5013163;28;20061;-74
2022/04/07 00:24:55;;;;;;;4.32;3.15;;;9.90;99.90;;;;;;5027743;28;20081;-73
2022/04/07 00:27:21;;;;;;;2.15;1.98;;;9.80;99.90;;;;;;5004574;28;20049;-74
2022/04/07 00:29:47;;;;;;;4.32;2.50;;;9.70;99.90;;;;;;5019242;28;20077;-74
2022/04/07 00:32:12;;;;;;;9.70;3.05;;;9.70;99.90;;;;;;5025170;28;20045;-74
2022/04/07 00:34:39;;;;;;;4.30;1.92;;;9.60;99.90;;;;;;4999091;28;20992;-74
2022/04/07 00:37:05;;;;;;;4.55;1.92;;;9.60;99.90;;;;;;5008113;28;20061;-74
2022/04/07 00:39:31;;;;;;;3.90;2.00;;;9.60;99.90;;;;;;5007614;28;20613;-73
2022/04/07 00:41:56;;;;;;;3.80;2.45;;;9.50;99.90;;;;;;5027179;28;20056;-73
2022/04/07 00:44:22;;;;;;;3.13;2.55;;;9.50;99.90;;;;;;5002364;28;20074;-74
2022/04/07 00:46:48;;;;;;;2.78;2.55;;;9.60;99.90;;;;;;5016441;28;20172;-74
2022/04/07 00:49:14;;;;;;;3.45;2.78;;;9.50;99.90;;;;;;5028613;28;20049;-74
2022/04/07 00:51:42;;;;;;;6.53;2.95;;;9.50;99.90;;;;;;5006200;28;20174;-74
2022/04/07 00:54:09;;;;;;;5.75;3.45;;;9.60;99.90;;;;;;5009898;28;20053;-74
2022/04/07 00:56:36;;;;;;;7.03;2.90;;;9.50;99.90;;;;;;5010337;28;20144;-74
2022/04/07 00:59:04;;;;;;;2.50;2.25;;;9.50;99.90;;;;;;5020109;28;20628;-74
2022/04/07 01:01:30;;;;;;;5.63;2.70;;;9.50;99.90;;;;;;5031781;28;20859;-74
2022/04/07 01:03:57;;;;;;;4.95;3.72;;;9.50;99.90;;;;;;5039147;28;20563;-74
2022/04/07 01:06:24;;;;;;;5.18;2.75;;;9.50;99.90;;;;;;5006833;28;20442;-74
2022/04/07 01:08:50;;;;;;;5.28;3.05;;;9.50;99.90;;;;;;5025423;28;20045;-73
2022/04/07 01:11:16;;;;;;;6.15;2.60;;;9.50;99.90;;;;;;5005993;28;20849;-74
2022/04/07 01:13:46;;;;;;;3.97;2.38;;;9.60;99.90;;;;;;5029724;28;20049;-73
2022/04/07 01:16:14;;;;;;;5.72;2.22;;;9.50;99.90;;;;;;5035273;28;20757;-74
2022/04/07 01:18:40;;;;;;;4.68;3.03;;;9.60;99.90;;;;;;5031431;28;20050;-73
2022/04/07 01:21:08;;;;;;;3.00;2.17;;;9.60;99.90;;;;;;5033017;28;20455;-74
2022/04/07 01:23:35;;;;;;;4.57;2.80;;;9.60;99.90;;;;;;5014302;28;20053;-73
2022/04/07 01:26:02;;;;;;;4.43;2.28;;;9.60;99.90;;;;;;5012022;28;20136;-74
2022/04/07 01:28:28;;;;;;;4.10;2.40;;;9.60;99.90;;;;;;5019738;28;20114;-73
2022/04/07 01:30:53;;;;;;;5.30;2.10;;;9.60;99.90;;;;;;5029155;28;20072;-73
2022/04/07 01:33:19;;;;;;;8.23;2.05;;;9.60;99.90;;;;;;5021318;28;20164;-73
2022/04/07 01:35:46;;;;;;;4.43;2.38;;;9.60;99.90;;;;;;5005732;28;20398;-74
2022/04/07 01:38:12;;;;;;;4.55;2.60;;;9.50;99.90;;;;;;5027169;28;20045;-73
2022/04/07 01:40:38;;;;;;;4.45;2.25;;;9.50;99.90;;;;;;5020070;28;20041;-73
2022/04/07 01:43:07;;;;;;;2.63;2.30;;;9.50;99.90;;;;;;5011531;28;20629;-72
2022/04/07 01:45:34;;;;;;;4.40;2.47;;;9.60;99.90;;;;;;5030012;28;20833;-73
2022/04/07 01:48:02;;;;;;;6.32;2.92;;;9.50;99.90;;;;;;5017363;28;20065;-73
2022/04/07 01:50:29;;;;;;;6.55;3.63;;;9.50;99.90;;;;;;5025483;28;20060;-73
2022/04/07 01:52:56;;;;;;;8.45;4.55;;;9.50;99.90;;;;;;5023265;28;20113;-77
2022/04/07 01:55:23;;;;;;;6.50;4.13;;;9.50;99.90;;;;;;5010299;28;20053;-75
2022/04/07 01:57:50;;;;;;;6.18;4.13;;;9.50;99.90;;;;;;5034021;28;20790;-75
2022/04/07 02:00:15;;;;;;;9.07;4.20;;;9.50;99.90;;;;;;5032726;28;20076;-75
2022/04/07 02:02:41;;;;;;;11.07;4.38;;;9.40;99.90;;;;;;5008756;28;20448;-75
2022/04/07 02:05:09;;;;;;;7.32;4.25;;;9.50;99.90;;;;;;5028058;28;20052;-75
2022/04/07 02:07:36;;;;;;;6.90;3.38;;;9.50;99.90;;;;;;5030299;28;20037;-76
2022/04/07 02:10:06;;;;;;;7.72;3.53;;;9.50;99.90;;;;;;5012782;28;20632;-75
2022/04/07 02:12:33;;;;;;;4.55;3.75;;;9.50;99.90;;;;;;5031398;28;20740;-75
2022/04/07 02:15:02;;;;;;;4.78;3.42;;;9.50;99.90;;;;;;5008232;28;20045;-74
2022/04/07 02:17:28;;;;;;;9.75;3.75;;;9.50;99.90;;;;;;5007160;28;20038;-73
2022/04/07 02:19:58;;;;;;;5.55;3.55;;;9.60;99.90;;;;;;5027027;28;20048;-74
2022/04/07 02:22:24;;;;;;;11.48;3.47;;;9.60;99.90;;;;;;5003480;28;20050;-77
2022/04/07 02:24:50;;;;;;;8.48;3.47;;;9.50;99.90;;;;;;5027099;28;20045;-76
2022/04/07 02:27:16;;;;;;;3.75;3.30;;;9.50;99.90;;;;;;5003301;28;20106;-76
2022/04/07 02:29:43;;;;;;;10.80;3.72;;;9.50;99.90;;;;;;5028488;28;20171;-76
2022/04/07 02:32:11;;;;;;;8.65;3.90;;;9.40;99.90;;;;;;5035812;28;20649;-75
2022/04/07 02:34:37;;;;;;;10.00;3.65;;;9.50;99.90;;;;;;5007603;28;20056;-74
2022/04/07 02:37:03;;;;;;;10.73;3.53;;;9.50;99.90;;;;;;5026198;28;20141;-74
2022/04/07 02:39:29;;;;;;;7.25;3.83;;;9.40;99.90;;;;;;5019707;28;20072;-74
2022/04/07 02:41:54;;;;;;;8.10;4.57;;;9.40;99.90;;;;;;5009866;28;20728;-74
2022/04/07 02:44:20;;;;;;;19.30;6.05;;;9.40;99.90;;;;;;5018171;28;20080;-74
2022/04/07 02:46:46;;;;;;;7.20;3.42;;;9.40;99.90;;;;;;5007833;28;20057;-74
2022/04/07 02:49:12;;;;;;;8.13;3.38;;;9.40;99.90;;;;;;5021400;28;20045;-74
2022/04/07 02:51:38;;;;;;;13.40;3.80;;;9.40;99.90;;;;;;5004689;28;20049;-74
2022/04/07 02:54:04;;;;;;;7.63;3.97;;;9.50;99.90;;;;;;5015326;28;20571;-74
2022/04/07 02:56:30;;;;;;;8.48;3.35;;;9.40;99.90;;;;;;5004378;28;20048;-74
2022/04/07 02:58:56;;;;;;;7.95;3.58;;;9.40;99.90;;;;;;5036145;28;20124;-74
2022/04/07 03:01:22;;;;;;;5.65;3.00;;;9.40;99.90;;;;;;5018461;28;20826;-74
2022/04/07 03:03:52;;;;;;;8.90;3.28;;;9.40;99.90;;;;;;5017643;28;20049;-75
2022/04/07 03:06:18;;;;;;;5.45;2.95;;;9.40;99.90;;;;;;5035905;28;20049;-74
2022/04/07 03:08:43;;;;;;;4.78;3.40;;;9.50;99.90;;;;;;5035420;28;20717;-74
2022/04/07 03:11:10;;;;;;;10.77;3.20;;;9.50;99.90;;;;;;5035247;28;20052;-74
2022/04/07 03:13:38;;;;;;;6.45;3.38;;;9.50;99.90;;;;;;5022331;28;20116;-74
2022/04/07 03:16:05;;;;;;;8.38;3.53;;;9.50;99.90;;;;;;5016824;28;20126;-74
2022/04/07 03:18:31;;;;;;;9.05;3.88;;;9.50;99.90;;;;;;4998709;28;20060;-74
2022/04/07 03:20:57;;;;;;;5.18;3.47;;;9.40;99.90;;;;;;4999809;28;20065;-74
2022/04/07 03:23:22;;;;;;;5.55;2.85;;;9.40;99.90;;;;;;5014815;28;20049;-74
2022/04/07 03:25:48;;;;;;;7.78;3.60;;;9.40;99.90;;;;;;5014593;28;20089;-74
2022/04/07 03:28:13;;;;;;;7.38;3.50;;;9.40;99.90;;;;;;5016684;28;20041;-74
2022/04/07 03:30:39;;;;;;;8.95;3.90;;;9.40;99.90;;;;;;5014940;28;20057;-74
2022/04/07 03:33:08;;;;;;;6.15;3.58;;;9.40;99.90;;;;;;5014413;28;20095;-74
2022/04/07 03:35:36;;;;;;;6.88;3.08;;;9.30;99.90;;;;;;5019507;28;20045;-74
2022/04/07 03:38:02;;;;;;;5.65;3.13;;;9.30;99.90;;;;;;5018647;28;20052;-74
2022/04/07 03:40:28;;;;;;;5.80;3.88;;;9.30;99.90;;;;;;5035691;28;20469;-74
2022/04/07 03:42:53;;;;;;;5.88;2.40;;;9.20;99.90;;;;;;5036668;28;20049;-74
2022/04/07 03:45:19;;;;;;;3.70;2.70;;;9.20;99.90;;;;;;5031123;28;20659;-74
2022/04/07 03:47:45;;;;;;;8.57;2.67;;;9.30;99.90;;;;;;5008957;28;20074;-74
2022/04/07 03:50:10;;;;;;;19.35;5.55;;;9.30;99.90;;;;;;5036265;28;20499;-74
2022/04/07 03:52:36;;;;;;;6.05;2.80;;;9.20;99.90;;;;;;5035621;28;20115;-73
2022/04/07 03:55:03;;;;;;;4.82;2.53;;;9.20;99.90;;;;;;5016864;28;20064;-74
2022/04/07 03:57:29;;;;;;;6.43;2.97;;;9.20;99.90;;;;;;5016270;28;20081;-74
2022/04/07 03:59:55;;;;;;;4.30;3.08;;;9.30;99.90;;;;;;4998057;28;20144;-74
2022/04/07 04:02:20;;;;;;;8.07;4.28;;;9.30;99.90;;;;;;5016489;28;20052;-74
2022/04/07 04:04:46;;;;;;;7.25;2.85;;;9.30;99.90;;;;;;4999012;28;20115;-74
2022/04/07 04:07:11;;;;;;;6.85;3.25;;;9.30;99.90;;;;;;5020762;28;20477;-74
2022/04/07 04:09:37;;;;;;;9.80;3.13;;;9.40;99.90;;;;;;5022966;28;20045;-74
2022/04/07 04:12:03;;;;;;;8.07;3.05;;;9.40;99.90;;;;;;4997931;28;20874;-74
2022/04/07 04:14:29;;;;;;;6.32;2.40;;;9.40;99.90;;;;;;4997911;28;20076;-74
2022/04/07 04:16:55;;;;;;;5.13;2.70;;;9.40;99.90;;;;;;4998938;28;20843;-74
2022/04/07 04:19:21;;;;;;;13.90;4.57;;;9.40;99.90;;;;;;5016351;28;20063;-74
2022/04/07 04:21:46;;;;;;;8.75;3.08;;;9.40;99.90;;;;;;4998003;28;20812;-74
2022/04/07 04:24:12;;;;;;;8.98;4.82;;;9.40;99.90;;;;;;4997880;28;20045;-74
2022/04/07 04:26:38;;;;;;;9.05;3.97;;;9.40;99.90;;;;;;5015434;28;20041;-75
2022/04/07 04:29:04;;;;;;;9.38;4.40;;;9.40;99.90;;;;;;4996837;28;20060;-74
2022/04/07 04:31:29;;;;;;;7.45;3.08;;;9.40;99.90;;;;;;5015444;28;20895;-75
2022/04/07 04:33:55;;;;;;;12.98;4.45;;;9.40;99.90;;;;;;4997627;28;20405;-74
2022/04/07 04:36:21;;;;;;;9.88;3.78;;;9.30;99.90;;;;;;5023209;28;20049;-75
2022/04/07 04:38:47;;;;;;;13.00;3.83;;;9.30;99.90;;;;;;5019901;28;20148;-76
2022/04/07 04:41:13;;;;;;;7.38;3.53;;;9.30;99.90;;;;;;5015980;28;20099;-75
2022/04/07 04:43:39;;;;;;;10.55;3.58;;;9.30;99.90;;;;;;4997162;28;20045;-76
2022/04/07 04:46:04;;;;;;;8.65;4.55;;;9.20;99.90;;;;;;5003072;28;20131;-76
2022/04/07 04:48:30;;;;;;;10.23;4.45;;;9.20;99.90;;;;;;5011193;28;20177;-75
2022/04/07 04:50:56;;;;;;;12.55;3.78;;;9.20;99.90;;;;;;5016153;28;20045;-74
2022/04/07 04:53:22;;;;;;;6.45;4.68;;;9.10;99.90;;;;;;5017256;28;20075;-72
2022/04/07 04:55:48;;;;;;;8.73;3.72;;;9.10;99.90;;;;;;5020211;28;20143;-71
2022/04/07 04:58:14;;;;;;;8.95;3.85;;;9.10;99.90;;;;;;5018629;28;20100;-72
2022/04/07 05:00:41;;;;;;;14.02;5.32;;;9.10;99.90;;;;;;5020870;28;20084;-72
2022/04/07 05:03:06;;;;;;;13.18;3.60;;;9.10;99.90;;;;;;4994787;28;20076;-72
2022/04/07 05:05:32;;;;;;;10.20;3.75;;;9.10;99.90;;;;;;5012108;28;20053;-73
2022/04/07 05:07:57;;;;;;;6.05;2.55;;;9.10;99.90;;;;;;5012545;28;20049;-72
2022/04/07 05:10:24;;;;;;;3.30;1.83;;;8.90;99.90;;;;;;5003088;28;20069;-73
2022/04/07 05:12:51;;;;;;;4.20;2.13;;;8.80;99.90;;;;;;4996169;28;20045;-75
2022/04/07 05:15:16;;;;;;;4.05;1.60;;;8.70;99.90;;;;;;5012557;28;20053;-76
2022/04/07 05:17:46;;;;;;;11.73;3.42;;;8.70;99.90;;;;;;5012051;28;20080;-74
2022/04/07 05:20:12;;;;;;;11.13;4.65;;;8.70;99.90;;;;;;5017755;28;20053;-74
2022/04/07 05:22:37;;;;;;;19.73;5.00;;;8.70;99.90;;;;;;5018579;28;20053;-75
2022/04/07 05:25:04;;;;;;;6.40;3.22;;;8.70;99.90;;;;;;5012707;28;20060;-74
2022/04/07 05:27:32;;;;;;;7.20;2.67;;;8.70;99.90;;;;;;5012650;28;20050;-73
2022/04/07 05:29:58;;;;;;;7.88;3.30;;;8.70;99.90;;;;;;5012829;28;20041;-73
2022/04/07 05:32:24;;;;;;;5.72;3.15;;;8.70;99.90;;;;;;4995137;28;20884;-74
2022/04/07 05:34:49;;;;;;;4.40;2.85;;;8.70;99.90;;;;;;4995995;28;20892;-73
2022/04/07 05:37:15;;;;;;;11.88;2.88;;;8.70;99.90;;;;;;5007144;28;20061;-73
2022/04/07 05:39:40;;;;;;;7.15;2.95;;;8.60;99.90;;;;;;5012266;28;20045;-73
2022/04/07 05:42:06;;;;;;;7.03;3.75;;;8.60;99.90;;;;;;5014180;28;20088;-73
2022/04/07 05:44:31;;;;;;;5.47;2.10;;;8.50;99.90;;;;;;5016890;28;20046;-80
2022/04/07 05:46:57;;;;;;;3.88;1.13;;;8.10;99.90;;;;;;5020360;28;20127;-81
2022/04/07 05:49:22;;;;;;;2.95;1.00;;;7.50;99.90;;;;;;5016654;28;20052;-78
2022/04/07 05:51:50;;;;;;;1.30;0.77;;;7.50;99.90;;;;;;5015680;28;20045;-78
2022/04/07 05:54:17;;;;;;;3.05;1.13;;;7.20;99.90;;;;;;5015166;28;20100;-74
2022/04/07 05:56:43;;;;;;;1.13;0.88;;;7.00;99.90;;;;;;5006095;28;20081;-74
2022/04/07 05:59:08;;;;;;;3.40;1.05;;;6.90;99.90;;;;;;4997049;28;20466;-74
2022/04/07 06:01:34;;;;;;;2.83;1.08;;;6.90;99.90;;;;;;4978303;28;20050;-74
2022/04/07 06:03:59;;;;;;;3.92;1.10;;;6.80;99.90;;;;;;4996054;28;20082;-74
2022/04/07 06:06:25;;;;;;;2.33;1.15;;;6.80;99.90;;;;;;4981538;28;20068;-73
2022/04/07 06:08:51;;;;;;;1.17;0.80;;;6.80;99.90;;;;;;5025168;28;20045;-73
2022/04/07 06:11:16;;;;;;;2.90;0.98;;;6.70;99.90;;;;;;4998319;28;20054;-73
2022/04/07 06:13:43;;;;;;;3.10;1.00;;;6.80;99.90;;;;;;4997401;28;20552;-73
2022/04/07 06:16:09;;;;;;;3.47;1.25;;;6.80;99.90;;;;;;5015756;28;20058;-73
2022/04/07 06:18:34;;;;;;;3.15;1.55;;;6.80;99.90;;;;;;5015215;28;20049;-73
2022/04/07 06:21:00;;;;;;;5.35;1.33;;;6.80;99.90;;;;;;5000022;28;20049;-73
2022/04/07 06:23:26;;;;;;;2.90;1.33;;;6.80;99.90;;;;;;5022786;28;20050;-73
2022/04/07 06:25:52;;;;;;;5.18;1.52;;;6.80;99.90;;;;;;4996967;28;20048;-72
2022/04/07 06:28:22;;;;;;;2.33;1.02;;;6.70;99.90;;;;;;5016069;28;20056;-71
2022/04/07 06:30:48;;;;;;;7.22;1.50;;;6.60;99.90;;;;;;5004979;28;20609;-73
2022/04/07 06:33:14;;;;;;;2.53;1.13;;;6.50;99.90;;;;;;5017548;28;20088;-73
2022/04/07 06:35:39;;;;;;;1.95;0.70;;;6.50;99.90;;;;;;5035107;28;20136;-73
2022/04/07 06:38:05;;;;;;;1.58;1.48;;;6.40;99.90;;;;;;5020469;28;20052;-74
2022/04/07 06:40:31;;;;;;;8.32;2.28;;;6.40;99.90;;;;;;5012688;28;20401;-73
2022/04/07 06:42:59;;;;;;;1.85;0.68;;;6.40;99.90;;;;;;4995934;28;20083;-73
2022/04/07 06:45:25;;;;;;;2.70;1.33;;;6.30;99.90;;;;;;5014831;28;20136;-73
2022/04/07 06:47:51;;;;;;;1.23;0.88;;;6.20;99.90;;;;;;5013480;28;20037;-71
2022/04/07 06:50:18;;;;;;;1.83;0.98;;;6.20;99.90;;;;;;4995892;28;20048;-72
2022/04/07 06:52:44;;;;;;;2.28;1.27;;;6.20;99.90;;;;;;5016586;28;20049;-71
2022/04/07 06:55:12;;;;;;;2.47;0.50;;;6.20;99.90;;;;;;5013010;28;20045;-71
2022/04/07 06:58:10;;;;;;;1.25;0.82;;;6.20;99.90;;;;;;5015928;28;20083;-70
2022/04/07 07:00:42;;;;;;;3.72;0.98;;;6.20;99.90;;;;;;4974351;28;20068;-70
2022/04/07 07:03:07;;;;;;;4.25;0.90;;;6.20;99.90;;;;;;5013129;28;20765;-70
2022/04/07 07:05:35;;;;;;;1.23;0.80;;;6.20;99.90;;;;;;5029989;28;20041;-70
2022/04/07 07:08:14;;;;;;;1.27;0.77;;;6.20;99.90;;;;;;5000809;28;20917;-70
2022/04/07 07:10:40;;;;;;;0.70;0.70;;;6.30;99.90;;;;;;5010721;28;20131;-70
2022/04/07 07:13:06;;;;;;;1.17;0.95;;;6.20;99.90;;;;;;5013712;28;20680;-70
2022/04/07 07:15:31;;;;;;;1.08;0.50;;;6.30;99.90;;;;;;5014460;28;20041;-70
2022/04/07 07:17:57;;;;;;;0.98;0.77;;;6.40;99.90;;;;;;5010689;28;20826;-70
2022/04/07 07:20:23;;;;;;;2.65;0.50;;;6.40;99.90;;;;;;5010964;28;20191;-71
2022/04/07 07:22:48;;;;;;;1.63;1.48;;;6.40;99.90;;;;;;5011814;28;20769;-71
2022/04/07 07:25:14;;;;;;;1.35;0.43;;;6.50;99.90;;;;;;5015149;28;20048;-71
2022/04/07 07:27:42;;;;;;;3.42;0.60;;;6.50;99.90;;;;;;5013445;28;20570;-72
2022/04/07 07:30:09;;;;;;;0.63;0.52;;;6.50;99.90;;;;;;5014423;28;20078;-71
2022/04/07 07:32:36;;;;;;;4.90;0.68;;;6.60;99.90;;;;;;4994110;28;20199;-71
2022/04/07 07:35:02;;;;;;;1.25;0.50;;;6.60;99.90;;;;;;5024403;28;20118;-71
2022/04/07 07:37:28;;;;;;;0.60;0.60;;;6.60;99.90;;;;;;5021900;28;20049;-72
2022/04/07 07:39:53;;;;;;;4.63;0.82;;;6.70;99.90;;;;;;5018849;28;20936;-72
2022/04/07 07:42:19;;;;;;;0.68;0.40;;;6.70;99.90;;;;;;5022938;28;20088;-72
2022/04/07 07:44:44;;;;;;;1.27;0.70;;;6.70;99.90;;;;;;5012934;28;20037;-72
2022/04/07 07:47:10;;;;;;;0.70;0.70;;;6.70;99.90;;;;;;4993680;28;20053;-72
2022/04/07 07:49:36;;;;;;;1.13;0.68;;;6.70;99.90;;;;;;4998560;28;20048;-72
2022/04/07 07:52:02;;;;;;;0.82;0.82;;;6.70;99.90;;;;;;5011381;28;20049;-72
2022/04/07 07:54:28;;;;;;;2.35;1.05;;;6.80;99.90;;;;;;5012684;28;20040;-73
2022/04/07 07:56:54;;;;;;;1.52;0.82;;;6.80;99.90;;;;;;4996905;28;20081;-73
2022/04/07 07:59:20;;;;;;;0.45;0.43;;;6.90;99.90;;;;;;5013129;28;20334;-73
2022/04/07 08:01:48;;;;;;;0.93;0.80;;;6.90;99.90;;;;;;5012399;28;20053;-73
2022/04/07 08:04:14;;;;;;;0.85;0.80;;;6.90;99.90;;;;;;5007248;28;20148;-73
2022/04/07 08:06:40;;;;;;;3.65;1.00;;;7.00;99.90;;;;;;5014248;28;20144;-73
2022/04/07 08:09:05;;;;;;;3.13;0.60;;;6.90;99.90;;;;;;5013809;28;20064;-72
2022/04/07 08:11:31;;;;;;;1.77;0.60;;;7.00;99.90;;;;;;5013963;28;20091;-74
2022/04/07 08:13:57;;;;;;;0.95;0.55;;;7.10;99.90;;;;;;5011435;28;20048;-73
2022/04/07 08:16:23;;;;;;;2.33;1.23;;;7.20;99.90;;;;;;4997138;28;20040;-74
2022/04/07 08:18:48;;;;;;;1.48;0.60;;;7.20;99.90;;;;;;5014067;28;20857;-74
2022/04/07 08:21:14;;;;;;;2.92;1.02;;;7.30;99.90;;;;;;4995312;28;20045;-73
2022/04/07 08:23:40;;;;;;;0.70;0.70;;;7.30;99.90;;;;;;5013502;28;20053;-75
2022/04/07 08:26:05;;;;;;;2.75;0.82;;;7.30;99.90;;;;;;4999037;28;20041;-76
2022/04/07 08:28:31;;;;;;;3.47;0.77;;;7.30;99.90;;;;;;4996201;28;20041;-76
2022/04/07 08:30:56;;;;;;;2.25;1.33;;;7.30;99.90;;;;;;5019488;28;20053;-75
2022/04/07 08:33:22;;;;;;;1.40;1.25;;;7.50;99.90;;;;;;4996154;28;20049;-75
2022/04/07 08:35:47;;;;;;;0.65;0.60;;;8.00;99.90;;;;;;4994106;28;20049;-75
2022/04/07 08:38:16;;;;;;;2.50;1.00;;;8.90;99.90;;;;;;5013308;28;20901;-75
2022/04/07 08:40:42;;;;;;;5.22;1.67;;;10.40;99.90;;;;;;5013764;28;20053;-72
2022/04/07 08:43:09;;;;;;;3.30;1.52;;;10.90;99.90;;;;;;5008881;28;20809;-71
2022/04/07 08:45:40;;;;;;;7.05;2.22;;;10.90;99.90;;;;;;5011736;28;20827;-71
2022/04/07 08:48:09;;;;;;;1.67;1.00;;;10.60;99.90;;;;;;5013309;28;20037;-72
2022/04/07 08:50:35;;;;;;;2.25;0.85;;;11.20;99.90;;;;;;5013507;28;20099;-71
2022/04/07 08:53:01;;;;;;;2.15;1.17;;;12.20;99.90;;;;;;5011222;28;20054;-72
2022/04/07 08:55:27;;;;;;;2.45;2.25;;;12.50;99.90;;;;;;4995055;28;20045;-71
2022/04/07 08:57:52;;;;;;;1.90;1.10;;;13.00;99.90;;;;;;5010856;28;20076;-72
2022/04/07 09:00:18;;;;;;;1.95;1.00;;;12.70;99.90;;;;;;5012274;28;20045;-72
2022/04/07 09:02:43;;;;;;;1.90;1.15;;;12.60;99.90;;;;;;5009492;28;20041;-72
2022/04/07 09:05:10;;;;;;;2.00;1.13;;;13.30;99.90;;;;;;4992063;28;20102;-72
2022/04/07 09:07:36;;;;;;;1.98;1.13;;;12.60;99.90;;;;;;5010222;28;20055;-72
2022/04/07 09:10:03;;;;;;;1.13;0.80;;;13.20;99.90;;;;;;5010882;28;20045;-72
2022/04/07 09:12:29;;;;;;;1.60;0.85;;;13.50;99.90;;;;;;5011053;28;20064;-72
2022/04/07 09:14:59;;;;;;;3.60;1.00;;;13.40;99.90;;;;;;5009125;28;20045;-72
2022/04/07 09:17:26;;;;;;;2.28;0.88;;;12.80;99.90;;;;;;4998627;28;20053;-73
2022/04/07 09:19:52;;;;;;;3.35;1.00;;;11.80;99.90;;;;;;5014608;28;20048;-71
2022/04/07 09:22:30;;;;;;;1.40;0.93;;;11.40;99.90;;;;;;5019024;28;20630;-72
2022/04/07 09:24:55;;;;;;;2.85;1.30;;;11.10;99.90;;;;;;5005383;28;20053;-72
2022/04/07 09:27:21;;;;;;;5.40;1.42;;;11.00;99.90;;;;;;5016944;28;20044;-72
2022/04/07 09:29:47;;;;;;;2.63;1.17;;;11.00;99.90;;;;;;5013480;28;20609;-72
2022/04/07 09:32:18;;;;;;;4.93;1.40;;;11.10;99.90;;;;;;5033436;28;20083;-72
2022/04/07 09:34:44;;;;;;;2.90;1.60;;;10.90;99.90;;;;;;5024469;28;20103;-71
2022/04/07 09:37:10;;;;;;;3.45;1.58;;;10.70;99.90;;;;;;5016666;28;20115;-71
2022/04/07 09:39:40;;;;;;;1.70;0.88;;;10.50;99.90;;;;;;4983695;28;20485;-78
2022/04/07 09:42:22;;;;;;;3.58;1.40;;;10.40;99.90;;;;;;4984184;28;20041;-77
2022/04/07 09:44:57;;;;;;;2.15;1.00;;;10.30;99.90;;;;;;5010061;28;20055;-73
2022/04/07 09:47:24;;;;;;;1.30;1.20;;;10.30;99.90;;;;;;5011872;28;20045;-73
2022/04/07 09:49:49;;;;;;;3.22;2.35;;;10.30;99.90;;;;;;5029351;28;20056;-72
2022/04/07 09:52:20;;;;;;;6.68;2.42;;;11.00;99.90;;;;;;5020031;28;20038;-73
2022/04/07 09:54:51;;;;;;;2.45;2.17;;;12.00;99.90;;;;;;5037211;28;20080;-73
2022/04/07 09:57:20;;;;;;;6.05;1.60;;;12.30;99.90;;;;;;4998157;28;20038;-73
2022/04/07 09:59:46;;;;;;;5.15;2.10;;;13.20;99.90;;;;;;4997140;28;20117;-73
2022/04/07 10:02:14;;;;;;;6.20;2.95;;;12.60;99.90;;;;;;4979211;28;20911;-73
2022/04/07 10:04:40;;;;;;;2.15;1.45;;;12.10;99.90;;;;;;4996895;28;20129;-73
2022/04/07 10:07:11;;;;;;;8.02;1.77;;;11.60;99.90;;;;;;4997615;28;20158;-74
2022/04/07 10:09:39;;;;;;;3.72;1.50;;;11.50;99.90;;;;;;5024185;28;20054;-73
2022/04/07 10:12:05;;;;;;;4.18;1.50;;;11.40;99.90;;;;;;5021035;28;20117;-73
2022/04/07 10:14:34;;;;;;;6.30;2.47;;;11.40;99.90;;;;;;5012949;28;20457;-74
2022/04/07 10:16:59;;;;;;;4.22;1.88;;;11.10;99.90;;;;;;5000382;28;20049;-73
2022/04/07 10:19:35;;;;;;;3.70;1.65;;;11.20;99.90;;;;;;5018653;28;20041;-73
2022/04/07 10:22:17;;;;;;;7.53;2.53;;;12.10;99.90;;;;;;4999677;28;20507;-72
2022/04/07 10:24:48;;;;;;;5.93;2.05;;;12.80;99.90;;;;;;4999988;28;20057;-72
2022/04/07 10:27:18;;;;;;;2.80;1.50;;;12.90;99.90;;;;;;5034655;28;20056;-71
2022/04/07 10:30:10;;;;;;;2.08;1.55;;;12.40;99.90;;;;;;5037922;28;20049;-72
2022/04/07 10:32:45;;;;;;;4.22;2.03;;;11.90;99.90;;;;;;5019768;28;20064;-72
2022/04/07 10:35:29;;;;;;;3.90;1.73;;;11.40;99.90;;;;;;5037239;28;20053;-72
2022/04/07 10:37:55;;;;;;;2.58;1.77;;;11.10;99.90;;;;;;5020031;28;20068;-71
2022/04/07 10:40:49;;;;;;;7.75;2.30;;;11.50;99.90;;;;;;5020001;28;20063;-72
2022/04/07 10:43:14;;;;;;;;;;;11.40;99.90;;;;;;5038954;28;20059;-72
2022/04/07 10:45:42;;;;;;;3.92;1.85;;;11.00;99.90;;;;;;5019960;28;19925;-71
2022/04/07 10:48:31;;;;;;;4.88;2.17;;;11.30;99.90;;;;;;5002330;28;20203;-71
2022/04/07 10:51:10;;;;;;;5.88;2.15;;;11.80;99.90;;;;;;4998832;28;20108;-73
2022/04/07 10:53:36;;;;;;;6.80;2.03;;;11.80;99.90;;;;;;5004988;28;20053;-72
2022/04/07 10:56:08;;;;;;;3.33;1.90;;;11.80;99.90;;;;;;5021720;28;20049;-70
2022/04/07 10:58:45;;;;;;;7.00;2.63;;;11.50;99.90;;;;;;5021459;28;20040;-70
2022/04/07 11:01:35;;;;;;;5.75;1.83;;;11.00;99.90;;;;;;5023215;28;20992;-75
2022/04/07 11:04:16;;;;;;;5.10;1.60;;;10.80;99.90;;;;;;5016242;28;20055;-70
2022/04/07 11:07:19;;;;;;;10.95;2.00;;;10.70;99.90;;;;;;5012950;28;20910;-70
2022/04/07 11:09:55;;;;;;;5.95;2.10;;;10.80;99.90;;;;;;5013921;28;20100;-70
2022/04/07 11:12:24;;;;;;;2.03;1.40;;;10.80;99.90;;;;;;5022509;28;20046;-70
2022/04/07 11:15:02;;;;;;;3.80;1.40;;;10.50;99.90;;;;;;4998659;28;20783;-71
2022/04/07 11:17:33;;;;;;;13.05;2.38;;;9.90;99.90;;;;;;5019687;28;20041;-71
2022/04/07 11:20:13;;;;;;;6.20;1.95;;;9.40;99.90;;;;;;5015284;28;20045;-69
2022/04/07 11:22:55;;;;;;;2.80;1.70;;;9.30;99.90;;;;;;5020050;28;20052;-69
2022/04/07 11:25:34;;;;;;;7.47;2.20;;;9.10;99.90;;;;;;5013984;28;20077;-68
2022/04/07 11:28:27;;;;;;;5.60;2.20;;;9.00;99.90;;;;;;4994161;28;20179;-69
2022/04/07 11:31:00;;;;;;;7.25;2.58;;;9.30;99.90;;;;;;5013205;28;20082;-69
2022/04/07 11:33:27;;;;;;;11.27;2.83;;;9.60;99.90;;;;;;5013877;28;20071;-69
2022/04/07 11:36:06;;;;;;;7.05;2.50;;;9.80;99.90;;;;;;4995892;28;20050;-70
2022/04/07 11:38:36;;;;;;;5.20;2.50;;;10.00;99.90;;;;;;5013944;28;20049;-71
2022/04/07 11:41:06;;;;;;;10.88;2.58;;;10.10;99.90;;;;;;5014524;28;20156;-69
2022/04/07 11:43:34;;;;;;;7.30;2.40;;;10.50;99.90;;;;;;5007909;28;20055;-70
2022/04/07 11:46:00;;;;;;;4.18;2.00;;;10.80;99.90;;;;;;5013590;28;20123;-71
2022/04/07 11:48:32;;;;;;;12.10;2.85;;;10.80;99.90;;;;;;5011965;28;20192;-69
2022/04/07 11:51:01;;;;;;;6.97;3.47;;;11.00;99.90;;;;;;4998789;28;20639;-70
2022/04/07 11:53:27;;;;;;;3.95;2.65;;;11.10;99.90;;;;;;5013331;28;20068;-70
2022/04/07 11:55:54;;;;;;;5.30;2.20;;;11.30;99.90;;;;;;4993890;28;20119;-69
2022/04/07 11:58:19;;;;;;;4.57;2.25;;;11.20;99.90;;;;;;4993253;28;20057;-70
2022/04/07 12:00:45;;;;;;;7.75;3.13;;;11.30;99.90;;;;;;4991753;28;20733;-75
2022/04/07 12:03:10;;;;;;;8.90;2.50;;;11.40;99.90;;;;;;5011993;28;20060;-69
2022/04/07 12:05:40;;;;;;;7.03;2.90;;;11.40;99.90;;;;;;5012122;28;20064;-69
2022/04/07 12:08:13;;;;;;;5.82;3.35;;;11.30;99.90;;;;;;4993413;28;20056;-69
2022/04/07 12:10:41;;;;;;;5.72;2.20;;;11.10;99.90;;;;;;5012923;28;20068;-68
2022/04/07 12:13:07;;;;;;;6.95;2.65;;;11.20;99.90;;;;;;5025857;28;20756;-72
2022/04/07 12:15:37;;;;;;;9.98;4.20;;;11.20;99.90;;;;;;4998560;28;20107;-75
2022/04/07 12:18:07;;;;;;;5.53;2.30;;;11.40;99.90;;;;;;5021969;28;20875;-75
2022/04/07 12:20:35;;;;;;;6.53;2.15;;;11.40;99.90;;;;;;5006339;28;20049;-74
2022/04/07 12:23:11;;;;;;;5.15;2.47;;;11.40;99.90;;;;;;5020158;28;20094;-73
2022/04/07 12:25:39;;;;;;;4.75;2.13;;;11.50;99.90;;;;;;5000633;28;20045;-73
2022/04/07 12:28:20;;;;;;;5.45;1.85;;;11.50;99.90;;;;;;5031808;28;20070;-74
2022/04/07 12:30:48;;;;;;;4.35;1.92;;;11.40;99.90;;;;;;4993926;28;20049;-74
2022/04/07 12:33:44;;;;;;;6.00;2.60;;;11.40;99.90;;;;;;5012730;28;20579;-74
2022/04/07 12:36:14;;;;;;;4.03;2.33;;;11.30;99.90;;;;;;5026057;28;20054;-74
2022/04/07 12:38:40;;;;;;;8.75;3.33;;;11.40;99.90;;;;;;4998726;28;20053;-76
2022/04/07 12:41:12;;;;;;;6.35;2.15;;;11.60;99.90;;;;;;5019635;28;20699;-73
2022/04/07 12:43:45;;;;;;;6.10;2.38;;;11.60;99.90;;;;;;4998198;28;20057;-72
2022/04/07 12:46:10;;;;;;;5.22;2.08;;;11.20;99.90;;;;;;4996591;28;20650;-72
2022/04/07 12:48:36;;;;;;;2.40;1.10;;;10.60;99.90;;;;;;5018273;28;20048;-71
2022/04/07 12:51:26;;;;;;;3.28;1.00;;;10.30;99.90;;;;;;5015267;28;20043;-71
2022/04/07 12:54:14;;;;;;;2.15;0.90;;;10.10;99.90;;;;;;5011923;28;20116;-71
2022/04/07 12:56:42;;;;;;;2.63;0.90;;;9.90;99.90;;;;;;5001501;28;20851;-71